sensor_id;sensor_type;location;lat;lon;timestamp;pressure;altitude;pressure_sealevel;temperature;humidity
64066;BME280;50318;54.760;9.408;2022-07-30T00:02:14;101506.59;;;21.00;61.01
64066;BME280;50318;54.760;9.408;2022-07-30T00:04:41;101499.50;;;20.99;61.25
64066;BME280;50318;54.760;9.408;2022-07-30T00:07:20;101499.50;;;20.99;61.18
64066;BME280;50318;54.760;9.408;2022-07-30T00:09:45;101507.13;;;20.98;61.45
64066;BME280;50318;54.760;9.408;2022-07-30T00:12:11;101498.00;;;20.98;61.28
64066;BME280;50318;54.760;9.408;2022-07-30T00:14:36;101500.28;;;20.99;61.39
64066;BME280;50318;54.760;9.408;2022-07-30T00:17:02;101496.72;;;20.99;61.54
64066;BME280;50318;54.760;9.408;2022-07-30T00:19:28;101498.00;;;20.98;61.62
64066;BME280;50318;54.760;9.408;2022-07-30T00:21:53;101495.44;;;20.94;61.89
64066;BME280;50318;54.760;9.408;2022-07-30T00:24:19;101484.53;;;20.91;62.11
64066;BME280;50318;54.760;9.408;2022-07-30T00:26:45;101486.31;;;20.88;62.38
64066;BME280;50318;54.760;9.408;2022-07-30T00:29:11;101489.88;;;20.89;62.42
64066;BME280;50318;54.760;9.408;2022-07-30T00:31:36;101485.56;;;20.88;62.56
64066;BME280;50318;54.760;9.408;2022-07-30T00:34:02;101490.38;;;20.87;62.56
64066;BME280;50318;54.760;9.408;2022-07-30T00:36:27;101480.72;;;20.88;62.85
64066;BME280;50318;54.760;9.408;2022-07-30T00:38:53;101495.19;;;20.87;62.65
64066;BME280;50318;54.760;9.408;2022-07-30T00:41:18;101485.81;;;20.84;62.77
64066;BME280;50318;54.760;9.408;2022-07-30T00:43:44;101476.16;;;20.85;62.87
64066;BME280;50318;54.760;9.408;2022-07-30T00:46:10;101474.41;;;20.88;62.86
64066;BME280;50318;54.760;9.408;2022-07-30T00:48:35;101477.44;;;20.90;62.77
64066;BME280;50318;54.760;9.408;2022-07-30T00:51:01;101471.09;;;20.89;62.71
64066;BME280;50318;54.760;9.408;2022-07-30T00:53:26;101465.03;;;20.91;62.84
64066;BME280;50318;54.760;9.408;2022-07-30T00:55:52;101464.75;;;20.89;63.04
64066;BME280;50318;54.760;9.408;2022-07-30T00:58:18;101461.97;;;20.89;63.17
64066;BME280;50318;54.760;9.408;2022-07-30T01:00:44;101456.41;;;20.89;63.09
64066;BME280;50318;54.760;9.408;2022-07-30T01:03:12;101453.59;;;20.89;63.14
64066;BME280;50318;54.760;9.408;2022-07-30T01:05:37;101449.56;;;20.90;63.28
64066;BME280;50318;54.760;9.408;2022-07-30T01:08:03;101455.91;;;20.90;63.32
64066;BME280;50318;54.760;9.408;2022-07-30T01:10:28;101457.41;;;20.91;63.37
64066;BME280;50318;54.760;9.408;2022-07-30T01:12:54;101457.41;;;20.91;63.63
64066;BME280;50318;54.760;9.408;2022-07-30T01:15:23;101450.31;;;20.90;63.53
64066;BME280;50318;54.760;9.408;2022-07-30T01:17:49;101443.97;;;20.90;63.69
64066;BME280;50318;54.760;9.408;2022-07-30T01:25:43;101438.63;;;20.80;64.21
64066;BME280;50318;54.760;9.408;2022-07-30T01:28:11;101437.84;;;20.80;64.50
64066;BME280;50318;54.760;9.408;2022-07-30T01:30:39;101438.38;;;20.78;64.76
64066;BME280;50318;54.760;9.408;2022-07-30T01:33:05;101442.41;;;20.77;64.46
64066;BME280;50318;54.760;9.408;2022-07-30T01:35:34;101446.72;;;20.78;64.51
64066;BME280;50318;54.760;9.408;2022-07-30T01:38:12;101441.91;;;20.79;64.69
64066;BME280;50318;54.760;9.408;2022-07-30T01:40:48;101443.44;;;20.80;64.63
64066;BME280;50318;54.760;9.408;2022-07-30T01:43:14;101448.50;;;20.81;64.69
64066;BME280;50318;54.760;9.408;2022-07-30T01:45:42;101437.63;;;20.83;64.73
64066;BME280;50318;54.760;9.408;2022-07-30T01:48:08;101445.25;;;20.83;64.66
64066;BME280;50318;54.760;9.408;2022-07-30T01:50:36;101440.41;;;20.83;64.66
64066;BME280;50318;54.760;9.408;2022-07-30T01:53:02;101434.84;;;20.83;64.88
64066;BME280;50318;54.760;9.408;2022-07-30T01:55:31;101443.22;;;20.83;64.92
64066;BME280;50318;54.760;9.408;2022-07-30T01:57:57;101444.72;;;20.84;64.74
64066;BME280;50318;54.760;9.408;2022-07-30T02:00:25;101446.25;;;20.86;65.10
64066;BME280;50318;54.760;9.408;2022-07-30T02:02:52;101445.50;;;20.85;64.95
64066;BME280;50318;54.760;9.408;2022-07-30T02:05:52;101442.44;;;20.83;65.11
64066;BME280;50318;54.760;9.408;2022-07-30T02:08:23;101436.59;;;20.81;65.20
64066;BME280;50318;54.760;9.408;2022-07-30T02:10:53;101437.09;;;20.79;65.20
64066;BME280;50318;54.760;9.408;2022-07-30T02:13:22;101436.09;;;20.77;65.50
64066;BME280;50318;54.760;9.408;2022-07-30T02:15:51;101433.78;;;20.75;65.66
64066;BME280;50318;54.760;9.408;2022-07-30T02:18:24;101430.75;;;20.73;65.70
64066;BME280;50318;54.760;9.408;2022-07-30T02:20:56;101428.72;;;20.74;65.69
64066;BME280;50318;54.760;9.408;2022-07-30T02:23:23;101431.50;;;20.74;65.53
64066;BME280;50318;54.760;9.408;2022-07-30T02:25:50;101435.31;;;20.71;65.73
64066;BME280;50318;54.760;9.408;2022-07-30T02:28:20;101432.28;;;20.74;65.79
64066;BME280;50318;54.760;9.408;2022-07-30T02:30:51;101430.25;;;20.75;65.59
64066;BME280;50318;54.760;9.408;2022-07-30T02:33:18;101428.22;;;20.75;65.65
64066;BME280;50318;54.760;9.408;2022-07-30T02:35:45;101421.88;;;20.75;65.72
64066;BME280;50318;54.760;9.408;2022-07-30T02:38:12;101413.78;;;20.71;65.74
64066;BME280;50318;54.760;9.408;2022-07-30T02:40:41;101417.56;;;20.68;65.88
64066;BME280;50318;54.760;9.408;2022-07-30T02:43:07;101407.44;;;20.65;66.27
64066;BME280;50318;54.760;9.408;2022-07-30T02:45:34;101407.94;;;20.64;66.16
64066;BME280;50318;54.760;9.408;2022-07-30T02:48:02;101408.44;;;20.62;66.04
64066;BME280;50318;54.760;9.408;2022-07-30T02:50:29;101396.53;;;20.62;66.32
64066;BME280;50318;54.760;9.408;2022-07-30T02:52:59;101405.41;;;20.60;66.16
64066;BME280;50318;54.760;9.408;2022-07-30T02:55:25;101399.06;;;20.60;66.34
64066;BME280;50318;54.760;9.408;2022-07-30T02:57:53;101402.31;;;20.58;66.23
64066;BME280;50318;54.760;9.408;2022-07-30T03:00:19;101392.94;;;20.56;66.33
64066;BME280;50318;54.760;9.408;2022-07-30T03:02:45;101392.94;;;20.56;66.49
64066;BME280;50318;54.760;9.408;2022-07-30T03:05:21;101392.19;;;20.55;66.57
64066;BME280;50318;54.760;9.408;2022-07-30T03:07:47;101393.69;;;20.56;66.59
64066;BME280;50318;54.760;9.408;2022-07-30T03:10:13;101402.06;;;20.56;66.58
64066;BME280;50318;54.760;9.408;2022-07-30T03:12:40;101386.34;;;20.53;66.63
64066;BME280;50318;54.760;9.408;2022-07-30T03:15:34;101391.94;;;20.53;66.74
64066;BME280;50318;54.760;9.408;2022-07-30T03:18:03;101390.66;;;20.54;66.66
64066;BME280;50318;54.760;9.408;2022-07-30T03:20:30;101396.22;;;20.54;66.69
64066;BME280;50318;54.760;9.408;2022-07-30T03:22:57;101390.16;;;20.56;66.72
64066;BME280;50318;54.760;9.408;2022-07-30T03:25:26;101390.41;;;20.58;66.65
64066;BME280;50318;54.760;9.408;2022-07-30T03:27:53;101391.69;;;20.57;66.73
64066;BME280;50318;54.760;9.408;2022-07-30T03:30:20;101398.28;;;20.59;66.85
64066;BME280;50318;54.760;9.408;2022-07-30T03:32:46;101393.47;;;20.60;66.75
64066;BME280;50318;54.760;9.408;2022-07-30T03:35:12;101385.88;;;20.60;66.63
64066;BME280;50318;54.760;9.408;2022-07-30T03:37:38;101395.75;;;20.61;66.90
64066;BME280;50318;54.760;9.408;2022-07-30T03:40:04;101390.19;;;20.61;66.80
64066;BME280;50318;54.760;9.408;2022-07-30T03:42:31;101404.38;;;20.63;66.78
64066;BME280;50318;54.760;9.408;2022-07-30T03:44:58;101394.75;;;20.64;66.68
64066;BME280;50318;54.760;9.408;2022-07-30T03:47:24;101398.31;;;20.65;66.60
64066;BME280;50318;54.760;9.408;2022-07-30T03:49:51;101393.22;;;20.63;66.63
64066;BME280;50318;54.760;9.408;2022-07-30T03:52:40;101394.75;;;20.64;66.99
64066;BME280;50318;54.760;9.408;2022-07-30T03:55:07;101397.78;;;20.66;66.83
64066;BME280;50318;54.760;9.408;2022-07-30T03:57:54;101394.25;;;20.66;66.59
64066;BME280;50318;54.760;9.408;2022-07-30T04:00:24;101389.94;;;20.65;66.65
64066;BME280;50318;54.760;9.408;2022-07-30T04:02:51;101395.50;;;20.65;66.73
64066;BME280;50318;54.760;9.408;2022-07-30T04:05:30;101382.84;;;20.64;66.79
64066;BME280;50318;54.760;9.408;2022-07-30T04:07:59;101393.22;;;20.63;66.85
64066;BME280;50318;54.760;9.408;2022-07-30T04:10:26;101384.38;;;20.65;66.87
64066;BME280;50318;54.760;9.408;2022-07-30T04:13:14;101386.66;;;20.66;66.59
64066;BME280;50318;54.760;9.408;2022-07-30T04:18:12;101382.09;;;20.63;66.97
64066;BME280;50318;54.760;9.408;2022-07-30T04:20:40;101373.72;;;20.63;67.00
64066;BME280;50318;54.760;9.408;2022-07-30T04:23:06;101378.03;;;20.64;67.08
64066;BME280;50318;54.760;9.408;2022-07-30T04:25:32;101385.88;;;20.66;66.93
64066;BME280;50318;54.760;9.408;2022-07-30T04:27:58;101380.31;;;20.66;66.99
64066;BME280;50318;54.760;9.408;2022-07-30T04:30:24;101387.41;;;20.67;66.96
64066;BME280;50318;54.760;9.408;2022-07-30T04:32:49;101377.78;;;20.68;66.96
64066;BME280;50318;54.760;9.408;2022-07-30T04:35:45;101372.97;;;20.68;66.96
64066;BME280;50318;54.760;9.408;2022-07-30T04:38:21;101376.00;;;20.70;66.87
64066;BME280;50318;54.760;9.408;2022-07-30T04:40:49;101381.59;;;20.70;67.13
64066;BME280;50318;54.760;9.408;2022-07-30T04:43:15;101385.63;;;20.69;67.20
64066;BME280;50318;54.760;9.408;2022-07-30T04:45:41;101380.81;;;20.70;67.09
64066;BME280;50318;54.760;9.408;2022-07-30T04:48:07;101379.31;;;20.69;67.30
64066;BME280;50318;54.760;9.408;2022-07-30T04:50:52;101374.22;;;20.67;67.42
64066;BME280;50318;54.760;9.408;2022-07-30T04:53:20;101376.75;;;20.65;67.47
64066;BME280;50318;54.760;9.408;2022-07-30T04:55:53;101378.53;;;20.63;67.56
64066;BME280;50318;54.760;9.408;2022-07-30T04:58:22;101383.59;;;20.64;67.59
64066;BME280;50318;54.760;9.408;2022-07-30T05:00:48;101392.72;;;20.65;67.64
64066;BME280;50318;54.760;9.408;2022-07-30T05:03:19;101386.16;;;20.68;67.94
64066;BME280;50318;54.760;9.408;2022-07-30T05:05:49;101391.22;;;20.69;67.73
64066;BME280;50318;54.760;9.408;2022-07-30T05:08:16;101392.72;;;20.70;67.56
64066;BME280;50318;54.760;9.408;2022-07-30T05:10:42;101404.13;;;20.72;67.83
64066;BME280;50318;54.760;9.408;2022-07-30T05:13:12;101397.56;;;20.75;67.65
64066;BME280;50318;54.760;9.408;2022-07-30T05:15:39;101400.34;;;20.75;67.76
64066;BME280;50318;54.760;9.408;2022-07-30T05:18:07;101397.56;;;20.75;67.93
64066;BME280;50318;54.760;9.408;2022-07-30T05:20:36;101393.50;;;20.76;67.67
64066;BME280;50318;54.760;9.408;2022-07-30T05:23:18;101401.09;;;20.76;67.88
64066;BME280;50318;54.760;9.408;2022-07-30T05:25:52;101390.72;;;20.76;67.84
64066;BME280;50318;54.760;9.408;2022-07-30T05:28:27;101389.19;;;20.81;67.83
64066;BME280;50318;54.760;9.408;2022-07-30T05:30:53;101395.03;;;20.83;67.91
64066;BME280;50318;54.760;9.408;2022-07-30T05:33:20;101388.22;;;20.84;67.78
64066;BME280;50318;54.760;9.408;2022-07-30T05:35:45;101391.75;;;20.84;67.87
64066;BME280;50318;54.760;9.408;2022-07-30T05:38:11;101394.78;;;20.87;67.79
64066;BME280;50318;54.760;9.408;2022-07-30T05:40:57;101393.53;;;20.88;67.76
64066;BME280;50318;54.760;9.408;2022-07-30T05:43:41;101395.81;;;20.89;68.03
64066;BME280;50318;54.760;9.408;2022-07-30T05:46:07;101396.81;;;20.92;68.00
64066;BME280;50318;54.760;9.408;2022-07-30T05:48:33;101390.75;;;20.93;67.85
64066;BME280;50318;54.760;9.408;2022-07-30T05:51:00;101388.72;;;20.94;68.06
64066;BME280;50318;54.760;9.408;2022-07-30T05:53:26;101393.03;;;20.95;68.21
64066;BME280;50318;54.760;9.408;2022-07-30T05:56:29;101391.75;;;20.96;68.05
64066;BME280;50318;54.760;9.408;2022-07-30T05:59:03;101395.31;;;20.96;67.89
64066;BME280;50318;54.760;9.408;2022-07-30T06:02:05;101396.31;;;20.99;68.20
64066;BME280;50318;54.760;9.408;2022-07-30T06:04:54;101404.19;;;21.00;67.94
64066;BME280;50318;54.760;9.408;2022-07-30T06:07:20;101395.28;;;21.02;68.12
64066;BME280;50318;54.760;9.408;2022-07-30T06:09:45;101394.28;;;21.05;68.11
64066;BME280;50318;54.760;9.408;2022-07-30T06:12:12;101392.03;;;21.09;67.89
64066;BME280;50318;54.760;9.408;2022-07-30T06:14:38;101398.38;;;21.15;67.86
64066;BME280;50318;54.760;9.408;2022-07-30T06:17:05;101397.34;;;21.18;67.82
64066;BME280;50318;54.760;9.408;2022-07-30T06:19:50;101391.75;;;21.18;67.85
64066;BME280;50318;54.760;9.408;2022-07-30T06:22:18;101400.38;;;21.20;67.84
64066;BME280;50318;54.760;9.408;2022-07-30T06:24:47;101395.81;;;21.23;67.75
64066;BME280;50318;54.760;9.408;2022-07-30T06:27:16;101396.84;;;21.25;67.84
64066;BME280;50318;54.760;9.408;2022-07-30T06:29:43;101395.59;;;21.26;68.23
64066;BME280;50318;54.760;9.408;2022-07-30T06:32:09;101392.03;;;21.26;68.07
64066;BME280;50318;54.760;9.408;2022-07-30T06:34:34;101392.78;;;21.26;68.18
64066;BME280;50318;54.760;9.408;2022-07-30T06:37:00;101391.53;;;21.27;68.04
64066;BME280;50318;54.760;9.408;2022-07-30T06:39:26;101390.00;;;21.26;68.29
64066;BME280;50318;54.760;9.408;2022-07-30T06:41:51;101392.78;;;21.26;68.23
64066;BME280;50318;54.760;9.408;2022-07-30T06:44:17;101390.25;;;21.28;68.26
64066;BME280;50318;54.760;9.408;2022-07-30T06:47:20;101388.72;;;21.27;68.29
64066;BME280;50318;54.760;9.408;2022-07-30T06:49:50;101391.78;;;21.29;68.76
64066;BME280;50318;54.760;9.408;2022-07-30T06:52:17;101390.78;;;21.32;68.41
64066;BME280;50318;54.760;9.408;2022-07-30T06:54:48;101387.47;;;21.34;68.68
64066;BME280;50318;54.760;9.408;2022-07-30T06:57:21;101394.59;;;21.35;68.65
64066;BME280;50318;54.760;9.408;2022-07-30T06:59:50;101383.91;;;21.39;68.39
64066;BME280;50318;54.760;9.408;2022-07-30T07:02:20;101381.13;;;21.39;68.26
64066;BME280;50318;54.760;9.408;2022-07-30T07:05:15;101379.63;;;21.38;68.51
64066;BME280;50318;54.760;9.408;2022-07-30T07:07:45;101381.88;;;21.39;68.52
64066;BME280;50318;54.760;9.408;2022-07-30T07:10:14;101382.91;;;21.42;68.47
64066;BME280;50318;54.760;9.408;2022-07-30T07:12:51;101385.19;;;21.43;68.65
64066;BME280;50318;54.760;9.408;2022-07-30T07:15:19;101385.94;;;21.50;68.24
64066;BME280;50318;54.760;9.408;2022-07-30T07:17:45;101387.97;;;21.55;68.25
64066;BME280;50318;54.760;9.408;2022-07-30T07:20:40;101383.38;;;21.63;68.18
64066;BME280;50318;54.760;9.408;2022-07-30T07:23:07;101378.28;;;21.67;67.78
64066;BME280;50318;54.760;9.408;2022-07-30T07:25:34;101389.69;;;21.69;67.63
64066;BME280;50318;54.760;9.408;2022-07-30T07:27:59;101385.63;;;21.70;67.99
64066;BME280;50318;54.760;9.408;2022-07-30T07:30:25;101385.88;;;21.72;67.67
64066;BME280;50318;54.760;9.408;2022-07-30T07:33:11;101382.06;;;21.75;67.84
64066;BME280;50318;54.760;9.408;2022-07-30T07:35:36;101383.59;;;21.76;67.65
64066;BME280;50318;54.760;9.408;2022-07-30T07:38:02;101388.94;;;21.80;67.57
64066;BME280;50318;54.760;9.408;2022-07-30T07:40:50;101393.22;;;21.86;67.77
64066;BME280;50318;54.760;9.408;2022-07-30T07:43:16;101380.00;;;21.92;67.35
64066;BME280;50318;54.760;9.408;2022-07-30T07:45:42;101383.53;;;21.98;67.60
64066;BME280;50318;54.760;9.408;2022-07-30T07:48:08;101391.94;;;22.04;67.24
64066;BME280;50318;54.760;9.408;2022-07-30T07:50:52;101382.00;;;22.09;67.29
64066;BME280;50318;54.760;9.408;2022-07-30T07:53:49;101384.75;;;22.14;67.05
64066;BME280;50318;54.760;9.408;2022-07-30T07:56:15;101394.16;;;22.17;67.19
64066;BME280;50318;54.760;9.408;2022-07-30T07:58:41;101383.97;;;22.19;66.35
64066;BME280;50318;54.760;9.408;2022-07-30T08:01:09;101391.59;;;22.24;66.66
64066;BME280;50318;54.760;9.408;2022-07-30T08:03:57;101387.25;;;22.29;66.19
64066;BME280;50318;54.760;9.408;2022-07-30T08:06:45;101385.47;;;22.31;65.93
64066;BME280;50318;54.760;9.408;2022-07-30T08:09:30;101393.56;;;22.35;66.14
64066;BME280;50318;54.760;9.408;2022-07-30T08:12:08;101392.78;;;22.40;65.50
64066;BME280;50318;54.760;9.408;2022-07-30T08:14:52;101399.09;;;22.46;65.78
64066;BME280;50318;54.760;9.408;2022-07-30T08:17:46;101388.66;;;22.52;65.39
64066;BME280;50318;54.760;9.408;2022-07-30T08:20:17;101378.47;;;22.55;65.78
64066;BME280;50318;54.760;9.408;2022-07-30T08:22:46;101383.03;;;22.58;65.56
64066;BME280;50318;54.760;9.408;2022-07-30T08:25:12;101385.53;;;22.61;64.94
64066;BME280;50318;54.760;9.408;2022-07-30T08:27:37;101386.53;;;22.64;65.00
64066;BME280;50318;54.760;9.408;2022-07-30T08:30:06;101385.50;;;22.67;65.28
64066;BME280;50318;54.760;9.408;2022-07-30T08:33:04;101396.41;;;22.71;65.10
64066;BME280;50318;54.760;9.408;2022-07-30T08:35:30;101395.38;;;22.74;64.65
64066;BME280;50318;54.760;9.408;2022-07-30T08:37:55;101396.38;;;22.76;64.49
64066;BME280;50318;54.760;9.408;2022-07-30T08:40:21;101398.91;;;22.80;64.54
64066;BME280;50318;54.760;9.408;2022-07-30T08:42:56;101404.75;;;22.82;64.94
64066;BME280;50318;54.760;9.408;2022-07-30T08:45:22;101405.00;;;22.84;64.27
64066;BME280;50318;54.760;9.408;2022-07-30T08:47:49;101420.75;;;22.87;63.97
64066;BME280;50318;54.760;9.408;2022-07-30T08:50:25;101421.97;;;22.91;64.54
64066;BME280;50318;54.760;9.408;2022-07-30T08:53:11;101424.00;;;22.96;64.20
64066;BME280;50318;54.760;9.408;2022-07-30T08:55:40;101432.34;;;23.02;63.93
64066;BME280;50318;54.760;9.408;2022-07-30T08:58:21;101413.47;;;23.08;63.95
64066;BME280;50318;54.760;9.408;2022-07-30T09:00:48;101406.03;;;23.16;63.93
64066;BME280;50318;54.760;9.408;2022-07-30T09:03:13;101404.75;;;23.17;63.48
64066;BME280;50318;54.760;9.408;2022-07-30T09:05:39;101404.47;;;23.21;63.83
64066;BME280;50318;54.760;9.408;2022-07-30T09:08:05;101408.75;;;23.27;64.01
64066;BME280;50318;54.760;9.408;2022-07-30T09:10:31;101402.56;;;23.35;63.10
64066;BME280;50318;54.760;9.408;2022-07-30T09:12:56;101396.97;;;23.35;62.98
64066;BME280;50318;54.760;9.408;2022-07-30T09:15:22;101398.00;;;23.32;63.77
64066;BME280;50318;54.760;9.408;2022-07-30T09:20:15;101384.88;;;23.21;64.02
64066;BME280;50318;54.760;9.408;2022-07-30T09:22:42;101381.13;;;23.13;63.92
64066;BME280;50318;54.760;9.408;2022-07-30T09:25:32;101376.09;;;23.06;64.37
64066;BME280;50318;54.760;9.408;2022-07-30T09:28:28;101367.28;;;22.96;64.21
64066;BME280;50318;54.760;9.408;2022-07-30T09:31:12;101363.28;;;22.86;64.35
64066;BME280;50318;54.760;9.408;2022-07-30T09:34:23;101371.69;;;22.80;65.15
64066;BME280;50318;54.760;9.408;2022-07-30T09:36:59;101374.50;;;22.80;64.88
64066;BME280;50318;54.760;9.408;2022-07-30T09:42:27;101383.81;;;22.94;64.72
64066;BME280;50318;54.760;9.408;2022-07-30T09:45:05;101381.47;;;23.04;65.05
64066;BME280;50318;54.760;9.408;2022-07-30T09:50:01;101392.56;;;23.15;64.76
64066;BME280;50318;54.760;9.408;2022-07-30T09:52:27;101394.03;;;23.21;64.06
64066;BME280;50318;54.760;9.408;2022-07-30T09:54:55;101386.59;;;23.30;64.19
64066;BME280;50318;54.760;9.408;2022-07-30T09:57:23;101388.34;;;23.33;63.80
64066;BME280;50318;54.760;9.408;2022-07-30T09:59:48;101388.28;;;23.38;63.77
64066;BME280;50318;54.760;9.408;2022-07-30T10:02:32;101390.78;;;23.42;64.28
64066;BME280;50318;54.760;9.408;2022-07-30T10:05:16;101395.06;;;23.48;63.66
64066;BME280;50318;54.760;9.408;2022-07-30T10:07:56;101392.72;;;23.52;62.97
64066;BME280;50318;54.760;9.408;2022-07-30T10:10:23;101389.66;;;23.56;63.37
64066;BME280;50318;54.760;9.408;2022-07-30T10:12:50;101396.50;;;23.61;62.92
64066;BME280;50318;54.760;9.408;2022-07-30T10:15:17;101390.59;;;23.64;62.75
64066;BME280;50318;54.760;9.408;2022-07-30T10:17:45;101389.56;;;23.67;62.23
64066;BME280;50318;54.760;9.408;2022-07-30T10:20:43;101395.94;;;23.68;62.32
64066;BME280;50318;54.760;9.408;2022-07-30T10:23:35;101388.81;;;23.67;62.45
64066;BME280;50318;54.760;9.408;2022-07-30T10:26:32;101382.50;;;23.61;62.10
64066;BME280;50318;54.760;9.408;2022-07-30T10:29:36;101393.06;;;23.73;62.36
64066;BME280;50318;54.760;9.408;2022-07-30T10:32:02;101398.97;;;23.88;62.68
64066;BME280;50318;54.760;9.408;2022-07-30T10:34:28;101409.47;;;24.07;61.82
64066;BME280;50318;54.760;9.408;2022-07-30T10:36:55;101405.19;;;24.25;61.88
64066;BME280;50318;54.760;9.408;2022-07-30T10:39:29;101405.47;;;24.45;61.30
64066;BME280;50318;54.760;9.408;2022-07-30T10:42:04;101401.94;;;24.58;61.02
64066;BME280;50318;54.760;9.408;2022-07-30T10:47:07;101409.19;;;25.04;60.48
64066;BME280;50318;54.760;9.408;2022-07-30T10:49:33;101398.56;;;25.16;59.66
64066;BME280;50318;54.760;9.408;2022-07-30T10:51:59;101399.09;;;25.28;59.32
64066;BME280;50318;54.760;9.408;2022-07-30T10:54:41;101395.91;;;25.37;59.47
64066;BME280;50318;54.760;9.408;2022-07-30T10:57:20;101398.28;;;25.46;58.26
64066;BME280;50318;54.760;9.408;2022-07-30T11:02:17;101394.22;;;25.60;57.91
64066;BME280;50318;54.760;9.408;2022-07-30T11:04:43;101388.72;;;25.68;57.78
64066;BME280;50318;54.760;9.408;2022-07-30T11:09:53;101381.03;;;25.95;57.21
64066;BME280;50318;54.760;9.408;2022-07-30T11:12:50;101385.78;;;26.00;56.55
64066;BME280;50318;54.760;9.408;2022-07-30T11:15:16;101379.63;;;26.01;55.75
64066;BME280;50318;54.760;9.408;2022-07-30T11:20:23;101385.34;;;25.96;55.71
64066;BME280;50318;54.760;9.408;2022-07-30T11:22:48;101376.38;;;25.97;55.47
64066;BME280;50318;54.760;9.408;2022-07-30T11:27:43;101377.94;;;26.33;54.46
64066;BME280;50318;54.760;9.408;2022-07-30T11:30:45;101373.56;;;26.58;54.82
64066;BME280;50318;54.760;9.408;2022-07-30T11:35:39;101370.38;;;26.75;52.71
64066;BME280;50318;54.760;9.408;2022-07-30T11:40:44;101365.50;;;26.75;51.78
64066;BME280;50318;54.760;9.408;2022-07-30T11:48:16;101366.56;;;26.72;51.59
64066;BME280;50318;54.760;9.408;2022-07-30T11:50:42;101363.50;;;26.83;51.56
64066;BME280;50318;54.760;9.408;2022-07-30T11:55:41;101370.50;;;26.90;50.29
64066;BME280;50318;54.760;9.408;2022-07-30T11:58:07;101362.94;;;26.85;50.06
64066;BME280;50318;54.760;9.408;2022-07-30T12:00:37;101369.06;;;26.76;50.24
64066;BME280;50318;54.760;9.408;2022-07-30T12:03:14;101361.84;;;26.67;50.63
64066;BME280;50318;54.760;9.408;2022-07-30T12:05:40;101373.03;;;26.59;50.60
64066;BME280;50318;54.760;9.408;2022-07-30T12:08:06;101371.50;;;26.58;51.02
64066;BME280;50318;54.760;9.408;2022-07-30T12:10:31;101359.91;;;26.62;50.65
64066;BME280;50318;54.760;9.408;2022-07-30T12:15:35;101366.81;;;26.74;50.42
64066;BME280;50318;54.760;9.408;2022-07-30T12:18:01;101366.13;;;26.81;50.42
64066;BME280;50318;54.760;9.408;2022-07-30T12:20:27;101375.03;;;26.93;50.11
64066;BME280;50318;54.760;9.408;2022-07-30T12:22:52;101367.66;;;27.03;49.71
64066;BME280;50318;54.760;9.408;2022-07-30T12:25:18;101371.69;;;27.15;49.53
64066;BME280;50318;54.760;9.408;2022-07-30T12:27:45;101361.31;;;27.31;49.45
64066;BME280;50318;54.760;9.408;2022-07-30T12:30:15;101373.25;;;27.45;49.00
64066;BME280;50318;54.760;9.408;2022-07-30T12:32:44;101370.47;;;27.52;49.08
64066;BME280;50318;54.760;9.408;2022-07-30T12:35:10;101363.53;;;27.53;49.01
64066;BME280;50318;54.760;9.408;2022-07-30T12:37:36;101369.16;;;27.53;49.04
64066;BME280;50318;54.760;9.408;2022-07-30T12:40:13;101360.91;;;27.56;48.72
64066;BME280;50318;54.760;9.408;2022-07-30T12:43:13;101358.69;;;27.62;48.34
64066;BME280;50318;54.760;9.408;2022-07-30T12:45:33;101357.59;;;27.65;48.52
64066;BME280;50318;54.760;9.408;2022-07-30T12:47:58;101355.19;;;27.69;47.74
64066;BME280;50318;54.760;9.408;2022-07-30T12:50:24;101361.72;;;27.64;47.31
64066;BME280;50318;54.760;9.408;2022-07-30T12:52:51;101365.22;;;27.57;47.37
64066;BME280;50318;54.760;9.408;2022-07-30T12:55:17;101362.00;;;27.52;47.68
64066;BME280;50318;54.760;9.408;2022-07-30T13:00:21;101357.16;;;27.61;47.28
64066;BME280;50318;54.760;9.408;2022-07-30T13:02:47;101359.53;;;27.70;47.79
64066;BME280;50318;54.760;9.408;2022-07-30T13:05:13;101354.31;;;27.81;46.96
64066;BME280;50318;54.760;9.408;2022-07-30T13:07:57;101360.78;;;27.97;47.08
64066;BME280;50318;54.760;9.408;2022-07-30T13:10:23;101341.28;;;28.14;46.84
64066;BME280;50318;54.760;9.408;2022-07-30T13:12:48;101347.34;;;28.19;46.18
64066;BME280;50318;54.760;9.408;2022-07-30T13:15:18;101339.06;;;28.21;46.39
64066;BME280;50318;54.760;9.408;2022-07-30T13:17:43;101353.53;;;28.17;45.80
64066;BME280;50318;54.760;9.408;2022-07-30T13:20:09;101345.78;;;28.10;45.23
64066;BME280;50318;54.760;9.408;2022-07-30T13:22:35;101347.47;;;28.05;45.38
64066;BME280;50318;54.760;9.408;2022-07-30T13:25:01;101349.91;;;28.01;46.08
64066;BME280;50318;54.760;9.408;2022-07-30T13:27:29;101358.91;;;28.00;46.43
64066;BME280;50318;54.760;9.408;2022-07-30T13:29:55;101359.28;;;27.96;45.74
64066;BME280;50318;54.760;9.408;2022-07-30T13:32:20;101358.88;;;27.92;45.89
64066;BME280;50318;54.760;9.408;2022-07-30T13:34:45;101350.56;;;27.87;45.42
64066;BME280;50318;54.760;9.408;2022-07-30T13:37:11;101355.06;;;27.82;45.41
64066;BME280;50318;54.760;9.408;2022-07-30T13:39:36;101351.28;;;27.79;45.76
64066;BME280;50318;54.760;9.408;2022-07-30T13:42:02;101353.16;;;27.77;45.85
64066;BME280;50318;54.760;9.408;2022-07-30T13:44:28;101350.91;;;27.75;46.47
64066;BME280;50318;54.760;9.408;2022-07-30T13:46:53;101354.09;;;27.72;45.50
64066;BME280;50318;54.760;9.408;2022-07-30T13:49:19;101346.94;;;27.71;45.48
64066;BME280;50318;54.760;9.408;2022-07-30T13:51:44;101348.25;;;27.70;45.74
64066;BME280;50318;54.760;9.408;2022-07-30T13:54:09;101350.09;;;27.67;45.74
64066;BME280;50318;54.760;9.408;2022-07-30T13:56:35;101343.84;;;27.61;45.98